sensor_id;sensor_type;location;lat;lon;timestamp;pressure;altitude;pressure_sealevel;temperature;humidity
77240;BME280;66258;53.170;-2.240;2023-04-06T00:02:05;100018.25;;;17.90;100.00
77240;BME280;66258;53.170;-2.240;2023-04-06T00:04:33;100019.03;;;17.97;100.00
77240;BME280;66258;53.170;-2.240;2023-04-06T00:07:00;100014.59;;;18.03;100.00
77240;BME280;66258;53.170;-2.240;2023-04-06T00:09:27;100018.28;;;18.15;100.00
77240;BME280;66258;53.170;-2.240;2023-04-06T00:11:54;100015.47;;;17.97;100.00
77240;BME280;66258;53.170;-2.240;2023-04-06T00:14:21;100014.22;;;17.93;100.00
77240;BME280;66258;53.170;-2.240;2023-04-06T00:16:47;100011.31;;;17.88;100.00
77240;BME280;66258;53.170;-2.240;2023-04-06T00:19:14;100009.81;;;17.92;100.00
77240;BME280;66258;53.170;-2.240;2023-04-06T00:21:43;100003.09;;;17.88;100.00
77240;BME280;66258;53.170;-2.240;2023-04-06T00:24:09;100010.03;;;17.90;100.00
77240;BME280;66258;53.170;-2.240;2023-04-06T00:26:36;99993.22;;;17.87;100.00
77240;BME280;66258;53.170;-2.240;2023-04-06T00:29:03;99997.34;;;17.96;100.00
77240;BME280;66258;53.170;-2.240;2023-04-06T00:31:30;99989.97;;;17.96;100.00
77240;BME280;66258;53.170;-2.240;2023-04-06T00:33:57;99993.22;;;17.87;100.00
77240;BME280;66258;53.170;-2.240;2023-04-06T00:36:24;99982.31;;;17.80;100.00
77240;BME280;66258;53.170;-2.240;2023-04-06T00:38:53;99979.97;;;17.83;100.00
77240;BME280;66258;53.170;-2.240;2023-04-06T00:41:20;99984.53;;;17.90;100.00
77240;BME280;66258;53.170;-2.240;2023-04-06T00:43:47;99981.19;;;17.88;100.00
77240;BME280;66258;53.170;-2.240;2023-04-06T00:46:14;99991.16;;;18.07;100.00
77240;BME280;66258;53.170;-2.240;2023-04-06T00:48:41;99981.53;;;17.98;100.00
77240;BME280;66258;53.170;-2.240;2023-04-06T00:51:08;99977.34;;;17.95;100.00
77240;BME280;66258;53.170;-2.240;2023-04-06T00:53:35;99971.41;;;17.98;100.00
77240;BME280;66258;53.170;-2.240;2023-04-06T00:56:03;99963.88;;;17.94;100.00
77240;BME280;66258;53.170;-2.240;2023-04-06T00:58:30;99963.78;;;18.07;100.00
77240;BME280;66258;53.170;-2.240;2023-04-06T01:00:57;99958.16;;;18.20;100.00
77240;BME280;66258;53.170;-2.240;2023-04-06T01:03:24;99965.16;;;18.16;100.00
77240;BME280;66258;53.170;-2.240;2023-04-06T01:05:51;99965.19;;;18.09;100.00
77240;BME280;66258;53.170;-2.240;2023-04-06T01:08:18;99958.44;;;18.12;100.00
77240;BME280;66258;53.170;-2.240;2023-04-06T01:10:45;99958.13;;;18.02;100.00
77240;BME280;66258;53.170;-2.240;2023-04-06T01:13:13;99954.03;;;18.11;100.00
77240;BME280;66258;53.170;-2.240;2023-04-06T01:15:40;99945.81;;;18.11;100.00
77240;BME280;66258;53.170;-2.240;2023-04-06T01:18:07;99948.28;;;18.19;100.00
77240;BME280;66258;53.170;-2.240;2023-04-06T01:20:34;99943.69;;;18.13;100.00
77240;BME280;66258;53.170;-2.240;2023-04-06T01:23:02;99937.59;;;18.11;100.00
77240;BME280;66258;53.170;-2.240;2023-04-06T01:25:29;99940.94;;;18.13;100.00
77240;BME280;66258;53.170;-2.240;2023-04-06T01:27:56;99947.25;;;18.13;100.00
77240;BME280;66258;53.170;-2.240;2023-04-06T01:30:23;99938.50;;;18.05;100.00
77240;BME280;66258;53.170;-2.240;2023-04-06T01:32:49;99933.34;;;18.15;100.00
77240;BME280;66258;53.170;-2.240;2023-04-06T01:35:18;99937.94;;;18.21;100.00
77240;BME280;66258;53.170;-2.240;2023-04-06T01:37:44;99936.97;;;18.09;100.00
77240;BME280;66258;53.170;-2.240;2023-04-06T01:40:13;99924.59;;;18.06;100.00
77240;BME280;66258;53.170;-2.240;2023-04-06T01:42:40;99936.53;;;18.12;100.00
77240;BME280;66258;53.170;-2.240;2023-04-06T01:45:08;99925.91;;;18.22;100.00
77240;BME280;66258;53.170;-2.240;2023-04-06T01:47:34;99915.78;;;18.23;100.00
77240;BME280;66258;53.170;-2.240;2023-04-06T01:50:02;99921.72;;;18.19;100.00
77240;BME280;66258;53.170;-2.240;2023-04-06T01:52:29;99923.28;;;18.09;100.00
77240;BME280;66258;53.170;-2.240;2023-04-06T01:54:56;99918.72;;;18.03;100.00
77240;BME280;66258;53.170;-2.240;2023-04-06T01:57:24;99916.16;;;18.08;100.00
77240;BME280;66258;53.170;-2.240;2023-04-06T01:59:51;99912.31;;;18.09;100.00
77240;BME280;66258;53.170;-2.240;2023-04-06T02:02:18;99897.13;;;18.13;100.00
77240;BME280;66258;53.170;-2.240;2023-04-06T02:04:44;99902.75;;;18.18;100.00
77240;BME280;66258;53.170;-2.240;2023-04-06T02:07:11;99903.81;;;18.17;100.00
77240;BME280;66258;53.170;-2.240;2023-04-06T02:09:38;99900.03;;;18.18;100.00
77240;BME280;66258;53.170;-2.240;2023-04-06T02:12:05;99898.34;;;18.17;100.00
77240;BME280;66258;53.170;-2.240;2023-04-06T02:14:33;99908.47;;;17.92;100.00
77240;BME280;66258;53.170;-2.240;2023-04-06T02:17:00;99900.25;;;17.67;100.00
77240;BME280;66258;53.170;-2.240;2023-04-06T02:19:27;99897.34;;;18.11;100.00
77240;BME280;66258;53.170;-2.240;2023-04-06T02:21:53;99899.81;;;18.38;100.00
77240;BME280;66258;53.170;-2.240;2023-04-06T02:24:20;99893.66;;;18.24;100.00
77240;BME280;66258;53.170;-2.240;2023-04-06T02:26:47;99898.13;;;18.37;100.00
77240;BME280;66258;53.170;-2.240;2023-04-06T02:29:14;99892.28;;;18.51;100.00
77240;BME280;66258;53.170;-2.240;2023-04-06T02:31:42;99894.28;;;18.44;100.00
77240;BME280;66258;53.170;-2.240;2023-04-06T02:34:09;99895.84;;;18.34;100.00
77240;BME280;66258;53.170;-2.240;2023-04-06T02:36:35;99890.47;;;18.27;100.00
77240;BME280;66258;53.170;-2.240;2023-04-06T02:39:02;99890.91;;;18.24;100.00
77240;BME280;66258;53.170;-2.240;2023-04-06T02:41:29;99893.75;;;18.11;100.00
77240;BME280;66258;53.170;-2.240;2023-04-06T02:43:56;99889.84;;;18.25;100.00
77240;BME280;66258;53.170;-2.240;2023-04-06T02:46:23;99887.16;;;18.18;100.00
77240;BME280;66258;53.170;-2.240;2023-04-06T02:48:51;99882.16;;;18.34;100.00
77240;BME280;66258;53.170;-2.240;2023-04-06T02:51:18;99874.47;;;18.24;100.00
77240;BME280;66258;53.170;-2.240;2023-04-06T02:53:45;99885.72;;;18.34;100.00
77240;BME280;66258;53.170;-2.240;2023-04-06T02:56:11;99881.09;;;18.35;100.00
77240;BME280;66258;53.170;-2.240;2023-04-06T02:58:38;99880.34;;;18.46;100.00
77240;BME280;66258;53.170;-2.240;2023-04-06T03:01:05;99869.06;;;18.36;100.00
77240;BME280;66258;53.170;-2.240;2023-04-06T03:03:32;99879.19;;;18.35;100.00
77240;BME280;66258;53.170;-2.240;2023-04-06T03:06:00;99877.22;;;18.42;100.00
77240;BME280;66258;53.170;-2.240;2023-04-06T03:08:27;99866.41;;;18.47;100.00
77240;BME280;66258;53.170;-2.240;2023-04-06T03:10:54;99874.09;;;18.39;100.00
77240;BME280;66258;53.170;-2.240;2023-04-06T03:13:20;99875.38;;;18.36;100.00
77240;BME280;66258;53.170;-2.240;2023-04-06T03:15:47;99867.53;;;18.40;100.00
77240;BME280;66258;53.170;-2.240;2023-04-06T03:18:14;99868.09;;;18.48;100.00
77240;BME280;66258;53.170;-2.240;2023-04-06T03:20:41;99867.81;;;18.50;100.00
77240;BME280;66258;53.170;-2.240;2023-04-06T03:23:09;99857.34;;;18.47;100.00
77240;BME280;66258;53.170;-2.240;2023-04-06T03:25:36;99856.41;;;18.35;100.00
77240;BME280;66258;53.170;-2.240;2023-04-06T03:28:03;99857.47;;;18.52;100.00
77240;BME280;66258;53.170;-2.240;2023-04-06T03:30:29;99854.50;;;18.53;100.00
77240;BME280;66258;53.170;-2.240;2023-04-06T03:32:56;99850.41;;;18.44;100.00
77240;BME280;66258;53.170;-2.240;2023-04-06T03:35:24;99837.84;;;18.55;100.00
77240;BME280;66258;53.170;-2.240;2023-04-06T03:37:50;99834.81;;;18.45;100.00
77240;BME280;66258;53.170;-2.240;2023-04-06T03:40:18;99841.28;;;18.69;100.00
77240;BME280;66258;53.170;-2.240;2023-04-06T03:42:45;99829.44;;;18.50;100.00
77240;BME280;66258;53.170;-2.240;2023-04-06T03:45:12;99822.41;;;18.42;100.00
77240;BME280;66258;53.170;-2.240;2023-04-06T03:47:39;99826.06;;;18.36;100.00
77240;BME280;66258;53.170;-2.240;2023-04-06T03:50:06;99818.59;;;18.43;100.00
77240;BME280;66258;53.170;-2.240;2023-04-06T03:52:34;99811.81;;;18.46;100.00
77240;BME280;66258;53.170;-2.240;2023-04-06T03:55:01;99817.06;;;18.47;100.00
77240;BME280;66258;53.170;-2.240;2023-04-06T03:57:29;99814.19;;;18.42;100.00
77240;BME280;66258;53.170;-2.240;2023-04-06T03:59:56;99821.56;;;18.60;100.00
77240;BME280;66258;53.170;-2.240;2023-04-06T04:02:23;99817.53;;;18.44;100.00
77240;BME280;66258;53.170;-2.240;2023-04-06T04:04:50;99821.84;;;18.52;100.00
77240;BME280;66258;53.170;-2.240;2023-04-06T04:07:16;99818.44;;;18.38;100.00
77240;BME280;66258;53.170;-2.240;2023-04-06T04:09:43;99828.28;;;18.28;100.00
77240;BME280;66258;53.170;-2.240;2023-04-06T04:12:10;99817.91;;;18.11;100.00
77240;BME280;66258;53.170;-2.240;2023-04-06T04:14:38;99820.72;;;18.41;100.00
77240;BME280;66258;53.170;-2.240;2023-04-06T04:17:05;99819.59;;;18.49;100.00
77240;BME280;66258;53.170;-2.240;2023-04-06T04:19:32;99829.56;;;18.62;100.00
77240;BME280;66258;53.170;-2.240;2023-04-06T04:21:59;99824.53;;;18.40;100.00
77240;BME280;66258;53.170;-2.240;2023-04-06T04:24:26;99823.00;;;18.44;100.00
77240;BME280;66258;53.170;-2.240;2023-04-06T04:26:52;99817.66;;;18.31;100.00
77240;BME280;66258;53.170;-2.240;2023-04-06T04:29:19;99817.97;;;18.41;100.00
77240;BME280;66258;53.170;-2.240;2023-04-06T04:31:48;99815.25;;;18.23;100.00
77240;BME280;66258;53.170;-2.240;2023-04-06T04:34:15;99819.19;;;18.09;100.00
77240;BME280;66258;53.170;-2.240;2023-04-06T04:36:42;99815.69;;;17.83;100.00
77240;BME280;66258;53.170;-2.240;2023-04-06T04:39:08;99809.53;;;17.63;100.00
77240;BME280;66258;53.170;-2.240;2023-04-06T04:41:35;99804.13;;;17.81;100.00
77240;BME280;66258;53.170;-2.240;2023-04-06T04:44:02;99814.06;;;17.76;100.00
77240;BME280;66258;53.170;-2.240;2023-04-06T04:46:29;99813.84;;;17.77;100.00
77240;BME280;66258;53.170;-2.240;2023-04-06T04:48:57;99817.81;;;17.81;100.00
77240;BME280;66258;53.170;-2.240;2023-04-06T04:51:24;99812.50;;;17.87;100.00
77240;BME280;66258;53.170;-2.240;2023-04-06T04:53:51;99813.25;;;18.12;100.00
77240;BME280;66258;53.170;-2.240;2023-04-06T04:56:18;99812.19;;;18.31;100.00
77240;BME280;66258;53.170;-2.240;2023-04-06T04:58:44;99818.66;;;18.37;100.00
77240;BME280;66258;53.170;-2.240;2023-04-06T05:01:11;99805.41;;;18.52;100.00
77240;BME280;66258;53.170;-2.240;2023-04-06T05:03:38;99808.97;;;18.71;100.00
77240;BME280;66258;53.170;-2.240;2023-04-06T05:06:07;99809.13;;;18.58;100.00
77240;BME280;66258;53.170;-2.240;2023-04-06T05:08:33;99805.63;;;18.50;100.00
77240;BME280;66258;53.170;-2.240;2023-04-06T05:11:00;99814.56;;;18.46;100.00
77240;BME280;66258;53.170;-2.240;2023-04-06T05:13:27;99815.28;;;18.53;100.00
77240;BME280;66258;53.170;-2.240;2023-04-06T05:15:57;99821.25;;;18.32;100.00
77240;BME280;66258;53.170;-2.240;2023-04-06T05:18:24;99826.44;;;18.03;100.00
77240;BME280;66258;53.170;-2.240;2023-04-06T05:20:50;99825.84;;;17.76;100.00
77240;BME280;66258;53.170;-2.240;2023-04-06T05:23:19;99829.69;;;17.94;100.00
77240;BME280;66258;53.170;-2.240;2023-04-06T05:25:45;99829.81;;;17.80;100.00
77240;BME280;66258;53.170;-2.240;2023-04-06T05:28:12;99824.34;;;17.80;100.00
77240;BME280;66258;53.170;-2.240;2023-04-06T05:30:39;99829.06;;;17.92;100.00
77240;BME280;66258;53.170;-2.240;2023-04-06T05:33:06;99823.25;;;18.06;100.00
77240;BME280;66258;53.170;-2.240;2023-04-06T05:35:32;99818.75;;;18.12;100.00
77240;BME280;66258;53.170;-2.240;2023-04-06T05:37:59;99830.84;;;18.23;100.00
77240;BME280;66258;53.170;-2.240;2023-04-06T05:40:27;99837.84;;;17.50;100.00
77240;BME280;66258;53.170;-2.240;2023-04-06T05:42:54;99844.94;;;17.65;100.00
77240;BME280;66258;53.170;-2.240;2023-04-06T05:45:21;99841.75;;;17.61;100.00
77240;BME280;66258;53.170;-2.240;2023-04-06T05:47:48;99841.72;;;17.43;100.00
77240;BME280;66258;53.170;-2.240;2023-04-06T05:50:15;99851.00;;;17.67;100.00
77240;BME280;66258;53.170;-2.240;2023-04-06T05:52:42;99850.88;;;17.55;100.00
77240;BME280;66258;53.170;-2.240;2023-04-06T05:55:10;99853.50;;;17.68;100.00
77240;BME280;66258;53.170;-2.240;2023-04-06T05:57:38;99861.41;;;17.51;100.00
77240;BME280;66258;53.170;-2.240;2023-04-06T06:00:07;99871.97;;;17.48;100.00
77240;BME280;66258;53.170;-2.240;2023-04-06T06:02:34;99864.50;;;17.62;100.00
77240;BME280;66258;53.170;-2.240;2023-04-06T06:05:01;99876.16;;;17.50;100.00
77240;BME280;66258;53.170;-2.240;2023-04-06T06:07:29;99875.28;;;17.57;100.00
77240;BME280;66258;53.170;-2.240;2023-04-06T06:09:56;99878.41;;;17.60;100.00
77240;BME280;66258;53.170;-2.240;2023-04-06T06:12:23;99889.22;;;17.48;100.00
77240;BME280;66258;53.170;-2.240;2023-04-06T06:14:51;99877.97;;;17.63;100.00
77240;BME280;66258;53.170;-2.240;2023-04-06T06:17:18;99882.56;;;17.38;100.00
77240;BME280;66258;53.170;-2.240;2023-04-06T06:19:45;99887.06;;;17.26;100.00
77240;BME280;66258;53.170;-2.240;2023-04-06T06:22:11;99887.88;;;16.95;100.00
77240;BME280;66258;53.170;-2.240;2023-04-06T06:24:38;99891.97;;;16.72;100.00
77240;BME280;66258;53.170;-2.240;2023-04-06T06:27:05;99902.19;;;16.97;100.00
77240;BME280;66258;53.170;-2.240;2023-04-06T06:29:32;99908.16;;;16.74;100.00
77240;BME280;66258;53.170;-2.240;2023-04-06T06:32:00;99903.06;;;16.84;100.00
77240;BME280;66258;53.170;-2.240;2023-04-06T06:34:27;99905.78;;;16.91;100.00
77240;BME280;66258;53.170;-2.240;2023-04-06T06:36:53;99916.31;;;17.25;100.00
77240;BME280;66258;53.170;-2.240;2023-04-06T06:39:20;99930.72;;;17.07;100.00
77240;BME280;66258;53.170;-2.240;2023-04-06T06:41:47;99929.75;;;17.33;100.00
77240;BME280;66258;53.170;-2.240;2023-04-06T06:44:14;99940.06;;;17.31;100.00
77240;BME280;66258;53.170;-2.240;2023-04-06T06:46:40;99946.56;;;17.37;100.00
77240;BME280;66258;53.170;-2.240;2023-04-06T06:49:09;99940.59;;;17.08;100.00
77240;BME280;66258;53.170;-2.240;2023-04-06T06:51:35;99943.22;;;16.90;100.00
77240;BME280;66258;53.170;-2.240;2023-04-06T06:54:02;99947.28;;;16.68;100.00
77240;BME280;66258;53.170;-2.240;2023-04-06T06:56:29;99942.03;;;16.73;100.00
77240;BME280;66258;53.170;-2.240;2023-04-06T06:58:56;99941.66;;;17.07;100.00
77240;BME280;66258;53.170;-2.240;2023-04-06T07:01:23;99948.47;;;16.92;100.00
77240;BME280;66258;53.170;-2.240;2023-04-06T07:03:50;99947.63;;;17.36;100.00
77240;BME280;66258;53.170;-2.240;2023-04-06T07:06:18;99943.81;;;17.37;100.00
77240;BME280;66258;53.170;-2.240;2023-04-06T07:08:45;99944.56;;;17.19;100.00
77240;BME280;66258;53.170;-2.240;2023-04-06T07:11:12;99944.44;;;17.39;100.00
77240;BME280;66258;53.170;-2.240;2023-04-06T07:13:38;99932.66;;;17.38;100.00
77240;BME280;66258;53.170;-2.240;2023-04-06T07:16:05;99943.06;;;17.55;100.00
77240;BME280;66258;53.170;-2.240;2023-04-06T07:18:32;99943.06;;;17.55;100.00
77240;BME280;66258;53.170;-2.240;2023-04-06T07:21:02;99937.28;;;17.38;100.00
77240;BME280;66258;53.170;-2.240;2023-04-06T07:23:30;99943.06;;;17.55;100.00
77240;BME280;66258;53.170;-2.240;2023-04-06T07:25:57;99955.66;;;18.18;100.00
77240;BME280;66258;53.170;-2.240;2023-04-06T07:28:23;99949.06;;;18.01;100.00
77240;BME280;66258;53.170;-2.240;2023-04-06T07:30:50;99964.97;;;18.36;100.00
77240;BME280;66258;53.170;-2.240;2023-04-06T07:33:17;99960.94;;;18.38;100.00
77240;BME280;66258;53.170;-2.240;2023-04-06T07:35:44;99965.13;;;18.84;100.00
77240;BME280;66258;53.170;-2.240;2023-04-06T07:38:11;99972.53;;;19.32;96.41
77240;BME280;66258;53.170;-2.240;2023-04-06T07:40:39;99962.63;;;19.12;96.00
77240;BME280;66258;53.170;-2.240;2023-04-06T07:43:06;99965.03;;;18.29;97.44
77240;BME280;66258;53.170;-2.240;2023-04-06T07:45:32;99960.59;;;17.85;98.22
77240;BME280;66258;53.170;-2.240;2023-04-06T07:47:59;99968.47;;;18.86;96.19
77240;BME280;66258;53.170;-2.240;2023-04-06T07:50:26;99974.44;;;20.03;92.79
77240;BME280;66258;53.170;-2.240;2023-04-06T07:52:53;99986.34;;;20.38;87.47
77240;BME280;66258;53.170;-2.240;2023-04-06T07:55:19;99983.44;;;20.33;87.02
77240;BME280;66258;53.170;-2.240;2023-04-06T07:57:48;99983.16;;;20.00;84.45
77240;BME280;66258;53.170;-2.240;2023-04-06T08:00:15;99989.63;;;20.17;85.41
77240;BME280;66258;53.170;-2.240;2023-04-06T08:02:41;99984.22;;;19.99;82.83
77240;BME280;66258;53.170;-2.240;2023-04-06T08:05:09;99984.06;;;19.22;85.13
77240;BME280;66258;53.170;-2.240;2023-04-06T08:07:36;99986.75;;;19.10;86.98
77240;BME280;66258;53.170;-2.240;2023-04-06T08:10:03;99981.31;;;18.24;87.21
77240;BME280;66258;53.170;-2.240;2023-04-06T08:12:31;99984.16;;;18.79;89.46
77240;BME280;66258;53.170;-2.240;2023-04-06T08:14:59;99985.81;;;19.16;88.81
77240;BME280;66258;53.170;-2.240;2023-04-06T08:17:26;99977.16;;;19.01;86.11
77240;BME280;66258;53.170;-2.240;2023-04-06T08:19:53;99979.13;;;18.94;85.98
77240;BME280;66258;53.170;-2.240;2023-04-06T08:22:20;99979.91;;;19.49;83.34
77240;BME280;66258;53.170;-2.240;2023-04-06T08:24:47;99989.00;;;19.92;82.87
77240;BME280;66258;53.170;-2.240;2023-04-06T08:27:14;99985.19;;;20.04;79.11
77240;BME280;66258;53.170;-2.240;2023-04-06T08:29:40;100005.00;;;20.48;78.25
77240;BME280;66258;53.170;-2.240;2023-04-06T08:32:09;99990.03;;;20.32;76.21
77240;BME280;66258;53.170;-2.240;2023-04-06T08:34:35;99992.31;;;20.47;76.02
77240;BME280;66258;53.170;-2.240;2023-04-06T08:37:02;99998.84;;;19.69;77.15
77240;BME280;66258;53.170;-2.240;2023-04-06T08:39:29;100001.91;;;19.61;81.34
77240;BME280;66258;53.170;-2.240;2023-04-06T08:41:56;100001.38;;;20.36;79.94
77240;BME280;66258;53.170;-2.240;2023-04-06T08:44:23;100006.50;;;21.02;79.18
77240;BME280;66258;53.170;-2.240;2023-04-06T08:46:50;100011.91;;;21.77;75.22
77240;BME280;66258;53.170;-2.240;2023-04-06T08:49:19;100010.78;;;21.21;69.32
77240;BME280;66258;53.170;-2.240;2023-04-06T08:51:46;100010.47;;;20.59;72.86
77240;BME280;66258;53.170;-2.240;2023-04-06T08:54:14;100012.28;;;20.54;74.97
77240;BME280;66258;53.170;-2.240;2023-04-06T08:56:41;100009.78;;;19.87;76.87
77240;BME280;66258;53.170;-2.240;2023-04-06T08:59:09;100011.75;;;19.02;81.31
77240;BME280;66258;53.170;-2.240;2023-04-06T09:01:39;100001.22;;;18.63;84.35
77240;BME280;66258;53.170;-2.240;2023-04-06T09:04:07;100002.72;;;18.34;85.48
77240;BME280;66258;53.170;-2.240;2023-04-06T09:06:36;100007.09;;;18.41;85.45
77240;BME280;66258;53.170;-2.240;2023-04-06T09:09:03;100001.66;;;18.10;87.71
77240;BME280;66258;53.170;-2.240;2023-04-06T09:11:42;99998.88;;;18.41;86.55
77240;BME280;66258;53.170;-2.240;2023-04-06T09:14:10;100009.00;;;18.66;86.69
77240;BME280;66258;53.170;-2.240;2023-04-06T09:16:41;99996.41;;;19.13;86.41
77240;BME280;66258;53.170;-2.240;2023-04-06T09:19:09;100000.31;;;18.87;84.45
77240;BME280;66258;53.170;-2.240;2023-04-06T09:21:37;100009.00;;;18.66;85.57
77240;BME280;66258;53.170;-2.240;2023-04-06T09:24:06;99992.31;;;18.17;85.15
77240;BME280;66258;53.170;-2.240;2023-04-06T09:26:44;100004.41;;;18.78;87.36
77240;BME280;66258;53.170;-2.240;2023-04-06T09:29:22;100007.50;;;19.84;77.68
77240;BME280;66258;53.170;-2.240;2023-04-06T09:31:49;100016.69;;;20.32;71.93
77240;BME280;66258;53.170;-2.240;2023-04-06T09:34:20;100011.88;;;20.27;69.59
77240;BME280;66258;53.170;-2.240;2023-04-06T09:36:49;100014.63;;;20.27;68.05
77240;BME280;66258;53.170;-2.240;2023-04-06T09:39:20;100019.66;;;20.30;67.64
77240;BME280;66258;53.170;-2.240;2023-04-06T09:41:51;100014.75;;;19.79;67.45
77240;BME280;66258;53.170;-2.240;2023-04-06T09:44:18;100014.34;;;19.94;67.93
77240;BME280;66258;53.170;-2.240;2023-04-06T09:46:46;100027.00;;;20.48;68.78
77240;BME280;66258;53.170;-2.240;2023-04-06T09:49:27;100034.94;;;20.14;66.20
77240;BME280;66258;53.170;-2.240;2023-04-06T09:52:02;100030.38;;;20.08;64.87
77240;BME280;66258;53.170;-2.240;2023-04-06T09:54:30;100036.91;;;20.49;65.19
77240;BME280;66258;53.170;-2.240;2023-04-06T09:57:02;100032.22;;;21.19;62.96
77240;BME280;66258;53.170;-2.240;2023-04-06T09:59:37;100028.28;;;20.92;61.19
77240;BME280;66258;53.170;-2.240;2023-04-06T10:02:08;100035.06;;;20.31;62.39
77240;BME280;66258;53.170;-2.240;2023-04-06T10:04:43;100039.44;;;19.49;61.96
77240;BME280;66258;53.170;-2.240;2023-04-06T10:07:14;100032.44;;;19.35;62.44
77240;BME280;66258;53.170;-2.240;2023-04-06T10:09:44;100042.28;;;19.42;65.38
77240;BME280;66258;53.170;-2.240;2023-04-06T10:12:13;100038.75;;;19.72;64.11
77240;BME280;66258;53.170;-2.240;2023-04-06T10:14:39;100041.38;;;19.78;65.51
77240;BME280;66258;53.170;-2.240;2023-04-06T10:17:07;100051.44;;;19.84;63.73
77240;BME280;66258;53.170;-2.240;2023-04-06T10:19:41;100046.03;;;19.30;64.80
77240;BME280;66258;53.170;-2.240;2023-04-06T10:22:15;100052.88;;;19.39;64.76
77240;BME280;66258;53.170;-2.240;2023-04-06T10:28:05;100049.28;;;18.09;64.71
77240;BME280;66258;53.170;-2.240;2023-04-06T10:30:34;100050.09;;;18.16;68.47
77240;BME280;66258;53.170;-2.240;2023-04-06T10:33:12;100057.84;;;18.19;67.13
77240;BME280;66258;53.170;-2.240;2023-04-06T10:35:41;100054.66;;;18.72;68.72
77240;BME280;66258;53.170;-2.240;2023-04-06T10:38:13;100063.41;;;18.37;68.17
77240;BME280;66258;53.170;-2.240;2023-04-06T10:40:41;100070.00;;;18.30;69.00
77240;BME280;66258;53.170;-2.240;2023-04-06T10:43:10;100074.13;;;18.70;68.66
77240;BME280;66258;53.170;-2.240;2023-04-06T10:45:37;100070.28;;;18.71;65.20
77240;BME280;66258;53.170;-2.240;2023-04-06T10:48:14;100071.09;;;18.29;65.37
77240;BME280;66258;53.170;-2.240;2023-04-06T10:50:44;100070.06;;;17.92;66.36
77240;BME280;66258;53.170;-2.240;2023-04-06T10:53:20;100076.84;;;19.32;66.07
77240;BME280;66258;53.170;-2.240;2023-04-06T10:55:50;100085.84;;;18.77;63.74
77240;BME280;66258;53.170;-2.240;2023-04-06T10:58:18;100090.19;;;18.67;63.56
77240;BME280;66258;53.170;-2.240;2023-04-06T11:00:46;100089.16;;;18.86;62.92
77240;BME280;66258;53.170;-2.240;2023-04-06T11:03:18;100093.38;;;19.07;61.14
77240;BME280;66258;53.170;-2.240;2023-04-06T11:05:47;100085.91;;;18.71;61.53
77240;BME280;66258;53.170;-2.240;2023-04-06T11:08:31;100092.31;;;18.65;63.21
77240;BME280;66258;53.170;-2.240;2023-04-06T11:11:05;100097.72;;;18.15;64.62
77240;BME280;66258;53.170;-2.240;2023-04-06T11:13:40;100098.75;;;18.95;62.93
77240;BME280;66258;53.170;-2.240;2023-04-06T11:16:13;100105.25;;;19.37;63.66
77240;BME280;66258;53.170;-2.240;2023-04-06T11:18:49;100094.44;;;19.42;62.53
77240;BME280;66258;53.170;-2.240;2023-04-06T11:21:16;100098.41;;;19.65;58.70
77240;BME280;66258;53.170;-2.240;2023-04-06T11:23:49;100107.63;;;20.30;58.77
77240;BME280;66258;53.170;-2.240;2023-04-06T11:26:16;100110.81;;;20.57;57.27
77240;BME280;66258;53.170;-2.240;2023-04-06T11:28:43;100110.41;;;20.42;58.60
77240;BME280;66258;53.170;-2.240;2023-04-06T11:31:11;100107.00;;;19.86;58.52
77240;BME280;66258;53.170;-2.240;2023-04-06T11:33:38;100107.13;;;19.92;58.89
77240;BME280;66258;53.170;-2.240;2023-04-06T11:36:08;100117.50;;;20.49;58.48
77240;BME280;66258;53.170;-2.240;2023-04-06T11:38:38;100114.78;;;21.19;60.02
77240;BME280;66258;53.170;-2.240;2023-04-06T11:41:14;100108.16;;;20.50;53.41
77240;BME280;66258;53.170;-2.240;2023-04-06T11:43:46;100114.41;;;20.69;53.43
77240;BME280;66258;53.170;-2.240;2023-04-06T11:46:17;100117.19;;;21.16;54.80
77240;BME280;66258;53.170;-2.240;2023-04-06T11:48:46;100115.13;;;20.65;54.28
77240;BME280;66258;53.170;-2.240;2023-04-06T11:51:22;100106.72;;;18.78;55.60
77240;BME280;66258;53.170;-2.240;2023-04-06T11:53:49;100109.91;;;19.55;57.63
77240;BME280;66258;53.170;-2.240;2023-04-06T11:56:25;100113.69;;;19.90;56.78
77240;BME280;66258;53.170;-2.240;2023-04-06T11:58:53;100122.97;;;20.08;57.08
77240;BME280;66258;53.170;-2.240;2023-04-06T12:01:22;100120.34;;;20.13;57.13
77240;BME280;66258;53.170;-2.240;2023-04-06T12:03:50;100120.69;;;20.05;56.89
77240;BME280;66258;53.170;-2.240;2023-04-06T12:06:18;100123.06;;;19.53;58.82
77240;BME280;66258;53.170;-2.240;2023-04-06T12:08:46;100125.22;;;19.81;58.38
77240;BME280;66258;53.170;-2.240;2023-04-06T12:11:14;100126.41;;;20.98;55.71
77240;BME280;66258;53.170;-2.240;2023-04-06T12:13:43;100135.72;;;20.97;52.80
77240;BME280;66258;53.170;-2.240;2023-04-06T12:16:10;100134.56;;;20.10;54.71
77240;BME280;66258;53.170;-2.240;2023-04-06T12:18:38;100130.03;;;19.49;55.44
77240;BME280;66258;53.170;-2.240;2023-04-06T12:21:05;100133.97;;;20.19;57.83
77240;BME280;66258;53.170;-2.240;2023-04-06T12:23:32;100140.75;;;20.77;53.36
77240;BME280;66258;53.170;-2.240;2023-04-06T12:26:00;100145.50;;;20.28;52.01
77240;BME280;66258;53.170;-2.240;2023-04-06T12:28:28;100135.19;;;19.02;53.01
77240;BME280;66258;53.170;-2.240;2023-04-06T12:30:56;100138.09;;;19.07;55.92
77240;BME280;66258;53.170;-2.240;2023-04-06T12:33:23;100137.00;;;18.65;58.46
77240;BME280;66258;53.170;-2.240;2023-04-06T12:35:52;100140.13;;;18.94;57.70
77240;BME280;66258;53.170;-2.240;2023-04-06T12:38:19;100139.47;;;18.42;59.51
77240;BME280;66258;53.170;-2.240;2023-04-06T12:40:46;100143.22;;;18.79;62.04
77240;BME280;66258;53.170;-2.240;2023-04-06T12:43:13;100158.91;;;19.15;60.67
77240;BME280;66258;53.170;-2.240;2023-04-06T12:45:40;100148.19;;;18.88;61.23
77240;BME280;66258;53.170;-2.240;2023-04-06T12:48:09;100159.03;;;19.02;60.98